createdAt,value
2023-10-09T04:02:24.048Z,99941.84
2023-10-09T04:06:30.020Z,99929.13
2023-10-09T04:10:44.716Z,99924.97
2023-10-09T04:14:51.753Z,99924.34
2023-10-09T04:18:57.583Z,99902.25
2023-10-09T04:23:07.042Z,99915.81
2023-10-09T04:27:09.911Z,99918.09
2023-10-09T04:31:15.654Z,99912.47
2023-10-09T04:35:25.196Z,99910.19
2023-10-09T04:39:38.602Z,99910.81
2023-10-09T04:43:45.673Z,99906.03
2023-10-09T04:48:07.325Z,99913.94
2023-10-09T04:52:19.952Z,99919.16
2023-10-09T04:56:25.420Z,99916.66
2023-10-09T05:00:48.090Z,99917.91
2023-10-09T05:05:11.422Z,99919.59
2023-10-09T05:09:16.376Z,99912.69
2023-10-09T05:13:37.372Z,99929.13
2023-10-09T05:17:40.584Z,99922.88
2023-10-09T05:21:48.443Z,99927.91
2023-10-09T05:25:59.969Z,99930.00
2023-10-09T05:30:14.209Z,99933.72
2023-10-09T05:34:21.000Z,99925.84
2023-10-09T05:38:26.027Z,99927.47
2023-10-09T05:42:44.161Z,99921.00
2023-10-09T05:47:09.735Z,99935.16
2023-10-09T05:51:13.462Z,99953.69
2023-10-09T05:55:42.000Z,99947.25
2023-10-09T06:00:03.669Z,99956.41
2023-10-09T06:04:17.100Z,99986.19
2023-10-09T06:08:25.996Z,99984.72
2023-10-09T06:12:48.411Z,99960.13
2023-10-09T06:17:18.788Z,99951.38
2023-10-09T06:21:35.988Z,99963.00
2023-10-09T06:25:40.331Z,99957.16
2023-10-09T06:30:13.524Z,99935.66
2023-10-09T06:34:17.839Z,99945.66
2023-10-09T06:38:24.736Z,99972.94
2023-10-09T06:42:35.376Z,100003.00
2023-10-09T06:46:53.560Z,100017.13
2023-10-09T06:50:57.466Z,99977.13
2023-10-09T06:55:20.044Z,99957.84
2023-10-09T06:59:22.888Z,99980.56
2023-10-09T07:03:31.076Z,100002.91
2023-10-09T07:07:36.202Z,99991.59
2023-10-09T07:11:59.862Z,100001.75
2023-10-09T07:16:20.331Z,100009.25
2023-10-09T07:20:36.929Z,100011.09
2023-10-09T07:24:44.427Z,100003.47
2023-10-09T07:28:50.261Z,100012.28
2023-10-09T07:32:55.576Z,100015.09
2023-10-09T07:36:58.513Z,100020.50
2023-10-09T07:41:22.981Z,100013.38
2023-10-09T07:46:16.632Z,100027.72
2023-10-09T07:50:22.473Z,100017.00
2023-10-09T07:54:33.322Z,100016.53
2023-10-09T07:58:47.218Z,100018.81
2023-10-09T08:02:49.932Z,100020.50
2023-10-09T08:07:05.484Z,100024.03
2023-10-09T08:11:55.182Z,100022.72
2023-10-09T08:16:02.449Z,100027.63
2023-10-09T08:20:13.152Z,100024.69
2023-10-09T08:24:29.711Z,100026.09
2023-10-09T08:28:40.788Z,100015.81
2023-10-09T08:37:07.484Z,100004.41
2023-10-09T08:41:18.346Z,100006.84
2023-10-09T08:45:25.799Z,100006.31
2023-10-09T08:49:31.112Z,100002.22
2023-10-09T08:53:34.271Z,99996.06
2023-10-09T08:57:36.894Z,99989.59
2023-10-09T09:01:40.767Z,99992.06
2023-10-09T09:05:47.668Z,99988.53
2023-10-09T09:09:58.181Z,99985.31
2023-10-09T09:14:06.319Z,99981.75
2023-10-09T09:18:12.018Z,99969.69
2023-10-09T09:22:16.176Z,99967.34
2023-10-09T09:26:35.592Z,99963.69
2023-10-09T09:30:38.950Z,99959.44
2023-10-09T09:34:49.099Z,99978.66
2023-10-09T09:38:53.548Z,99983.16
2023-10-09T09:43:05.747Z,99973.22
2023-10-09T09:47:09.877Z,99984.84
2023-10-09T09:51:15.632Z,99988.16
2023-10-09T09:55:23.658Z,99965.31
2023-10-09T09:59:29.421Z,99959.44
2023-10-09T10:03:36.687Z,99948.00
2023-10-09T10:07:44.180Z,99940.13
2023-10-09T10:11:53.257Z,99921.72
2023-10-09T10:16:11.195Z,99921.53
2023-10-09T10:20:32.371Z,99910.16
2023-10-09T10:24:53.919Z,99906.06
2023-10-09T10:29:25.372Z,99905.13
2023-10-09T10:33:29.216Z,99908.41
2023-10-09T10:37:45.414Z,99898.78
2023-10-09T10:41:55.340Z,99912.19
2023-10-09T10:46:06.740Z,99922.03
2023-10-09T10:50:33.465Z,99914.91
2023-10-09T10:54:48.306Z,99912.53
2023-10-09T10:59:12.904Z,99915.91
2023-10-09T11:03:25.123Z,99914.78
2023-10-09T11:07:29.073Z,99909.25
2023-10-09T11:11:42.081Z,99899.84
2023-10-09T11:15:48.683Z,99899.47
2023-10-09T11:19:53.883Z,99885.22
2023-10-09T11:24:00.056Z,99876.19
2023-10-09T11:28:22.692Z,99869.00
2023-10-09T11:32:26.398Z,99861.56
2023-10-09T11:36:36.170Z,99854.25
2023-10-09T11:41:04.694Z,99851.94
2023-10-09T11:45:20.482Z,99858.06
2023-10-09T11:49:45.244Z,99854.84
2023-10-09T11:53:50.922Z,99874.47
2023-10-09T11:57:54.007Z,99881.16
2023-10-09T12:01:59.835Z,99885.41
2023-10-09T12:06:06.634Z,99904.44
2023-10-09T12:10:12.481Z,99928.75
2023-10-09T12:14:15.275Z,99935.88
2023-10-09T12:18:19.374Z,99939.84
2023-10-09T12:22:22.658Z,99939.50
2023-10-09T12:26:26.547Z,99939.84
2023-10-09T12:30:29.979Z,99924.03
2023-10-09T12:34:32.665Z,99922.13
2023-10-09T12:38:35.416Z,99929.66
2023-10-09T12:42:39.364Z,99929.56
2023-10-09T12:46:42.065Z,99928.50
2023-10-09T12:50:45.387Z,99926.25
2023-10-09T12:54:48.283Z,99916.88
2023-10-09T12:58:54.942Z,99925.63
2023-10-09T13:02:57.743Z,99921.50
2023-10-09T13:07:03.958Z,99919.72
2023-10-09T13:11:11.770Z,99927.00
2023-10-09T13:15:16.244Z,99927.81
2023-10-09T13:19:18.822Z,99928.88
2023-10-09T13:23:23.085Z,99926.63
2023-10-09T13:27:25.656Z,99926.91
2023-10-09T13:31:32.901Z,99933.28
2023-10-09T13:35:39.930Z,99942.00
2023-10-09T13:39:53.217Z,99935.84
2023-10-09T13:43:57.834Z,99933.84
2023-10-09T13:48:03.883Z,99928.13
2023-10-09T13:52:08.381Z,99933.16
2023-10-09T13:56:15.741Z,99934.78
2023-10-09T14:00:33.525Z,99935.41
2023-10-09T14:04:38.210Z,99930.84
2023-10-09T14:08:43.327Z,99928.03
2023-10-09T14:12:46.053Z,99927.88
2023-10-09T14:16:48.687Z,99938.44
2023-10-09T14:20:57.352Z,99937.03
2023-10-09T14:25:00.519Z,99933.50
2023-10-09T14:29:05.576Z,99939.22
2023-10-09T14:33:13.201Z,99937.88
2023-10-09T14:37:17.241Z,99932.53
2023-10-09T14:41:23.104Z,99929.47
2023-10-09T14:45:26.835Z,99927.09
2023-10-09T14:49:35.962Z,99929.34
2023-10-09T14:53:39.957Z,99932.91
2023-10-09T14:57:43.400Z,99929.94
2023-10-09T15:01:46.143Z,99922.34
2023-10-09T15:05:49.002Z,99928.66
2023-10-09T15:09:53.250Z,99929.72
2023-10-09T15:13:57.156Z,99927.69
2023-10-09T15:17:59.868Z,99926.47
2023-10-09T15:22:02.678Z,99926.25
2023-10-09T15:26:08.048Z,99929.28
2023-10-09T15:30:14.842Z,99937.13
2023-10-09T15:34:19.720Z,99935.34
2023-10-09T15:38:22.738Z,99931.53
2023-10-09T15:42:26.768Z,99936.03
2023-10-09T15:46:34.562Z,99929.63
2023-10-09T15:50:37.215Z,99938.75
2023-10-09T15:54:42.572Z,99942.06
2023-10-09T15:58:47.227Z,99950.38
2023-10-09T16:02:54.060Z,99942.56
2023-10-09T16:06:57.258Z,99941.47
2023-10-09T16:11:01.354Z,99952.75
2023-10-09T16:15:06.746Z,99953.63
2023-10-09T16:19:11.512Z,99956.81
2023-10-09T16:23:14.167Z,99960.25
2023-10-09T16:27:20.508Z,99967.13
2023-10-09T16:31:24.585Z,99970.13
2023-10-09T16:35:27.368Z,99978.66
2023-10-09T16:39:39.222Z,99965.84
2023-10-09T16:43:43.666Z,99974.03
2023-10-09T16:47:48.245Z,99979.13
2023-10-09T16:51:50.968Z,99987.06
2023-10-09T16:55:57.874Z,99980.81
2023-10-09T17:00:00.627Z,99984.81
2023-10-09T17:04:05.017Z,99996.91
2023-10-09T17:08:11.032Z,99992.72
2023-10-09T17:12:18.581Z,99995.25
2023-10-09T17:16:25.422Z,99993.34
2023-10-09T17:20:29.811Z,99991.47
2023-10-09T17:24:33.499Z,100001.41
2023-10-09T17:28:37.489Z,100008.38
2023-10-09T17:32:40.123Z,100005.19
2023-10-09T17:36:44.060Z,100005.78
2023-10-09T17:40:52.239Z,100004.34
2023-10-09T17:44:56.596Z,100008.75
2023-10-09T17:49:00.286Z,100016.47
2023-10-09T17:53:06.033Z,100008.75
2023-10-09T17:57:08.704Z,100017.63
2023-10-09T18:01:11.406Z,100023.69
2023-10-09T18:05:14.499Z,100034.72
2023-10-09T18:09:18.763Z,100032.94
2023-10-09T18:13:21.984Z,100038.41
2023-10-09T18:17:27.781Z,100035.81
2023-10-09T18:21:30.767Z,100039.94
2023-10-09T18:25:34.748Z,100048.25
2023-10-09T18:29:38.331Z,100040.56
2023-10-09T18:33:42.225Z,100047.06
2023-10-09T18:37:44.897Z,100050.25
2023-10-09T18:41:49.365Z,100039.94
2023-10-09T18:45:52.447Z,100040.19
2023-10-09T18:49:55.232Z,100036.72
2023-10-09T18:54:01.597Z,100044.91
2023-10-09T18:58:06.249Z,100046.22
2023-10-09T19:02:12.221Z,100036.16
2023-10-09T19:06:18.488Z,100038.28
2023-10-09T19:10:21.969Z,100054.44
2023-10-09T19:14:26.988Z,100047.41
2023-10-09T19:18:29.991Z,100051.69
2023-10-09T19:22:32.769Z,100062.97
2023-10-09T19:26:36.332Z,100057.97
2023-10-09T19:30:40.353Z,100058.34
2023-10-09T19:34:43.057Z,100060.59
2023-10-09T19:38:51.513Z,100059.28
2023-10-09T19:42:54.463Z,100056.31
2023-10-09T19:46:58.466Z,100052.75
2023-10-09T19:51:02.446Z,100050.88
2023-10-09T19:55:09.424Z,100059.84
2023-10-09T19:59:13.122Z,100048.38
2023-10-09T20:03:17.265Z,100054.66
2023-10-09T20:07:20.071Z,100064.97
2023-10-09T20:11:24.072Z,100069.00
2023-10-09T20:15:27.178Z,100065.94
2023-10-09T20:19:33.284Z,100067.94
2023-10-09T20:23:36.818Z,100064.25
2023-10-09T20:27:39.480Z,100066.75
2023-10-09T20:31:45.712Z,100069.13
2023-10-09T20:35:52.353Z,100074.69
2023-10-09T20:39:55.091Z,100077.66
